createdAt,value
2023-03-15T00:00:55.307Z,91.16
2023-03-15T00:03:24.363Z,91.79
2023-03-15T00:05:53.314Z,91.31
2023-03-15T00:08:21.814Z,90.69
2023-03-15T00:10:50.092Z,90.22
2023-03-15T00:13:18.460Z,90.25
2023-03-15T00:15:49.604Z,91.22
2023-03-15T00:18:19.778Z,90.84
2023-03-15T00:20:48.694Z,90.95
2023-03-15T00:23:17.394Z,90.55
2023-03-15T00:25:46.246Z,90.88
2023-03-15T00:28:15.000Z,90.01
2023-03-15T00:30:43.163Z,90.76
2023-03-15T00:33:13.818Z,89.98
2023-03-15T00:35:42.907Z,90.26
2023-03-15T00:38:11.910Z,90.61
2023-03-15T00:40:42.784Z,89.73
2023-03-15T00:43:10.934Z,90.44
2023-03-15T00:45:39.813Z,90.38
2023-03-15T00:48:07.725Z,90.67
2023-03-15T00:50:36.985Z,89.90
2023-03-15T00:53:04.942Z,89.79
2023-03-15T00:55:32.907Z,89.53
2023-03-15T00:58:00.878Z,89.71
2023-03-15T01:00:29.346Z,89.92
2023-03-15T01:02:57.348Z,90.05
2023-03-15T01:05:26.293Z,90.39
2023-03-15T01:07:55.744Z,91.19
2023-03-15T01:10:23.661Z,91.20
2023-03-15T01:12:51.739Z,90.11
2023-03-15T01:15:19.695Z,90.44
2023-03-15T01:17:47.583Z,90.64
2023-03-15T01:20:16.891Z,90.41
2023-03-15T01:22:44.775Z,91.07
2023-03-15T01:25:13.977Z,90.53
2023-03-15T01:27:41.935Z,91.35
2023-03-15T01:30:11.045Z,91.60
2023-03-15T01:32:38.935Z,91.21
2023-03-15T01:35:08.209Z,90.84
2023-03-15T01:37:36.383Z,90.87
2023-03-15T01:40:06.961Z,91.70
2023-03-15T01:42:51.976Z,91.71
2023-03-15T01:45:55.252Z,92.65
2023-03-15T01:48:26.651Z,94.52
2023-03-15T01:50:55.785Z,96.75
2023-03-15T01:53:26.115Z,97.05
2023-03-15T01:55:55.663Z,100.00
2023-03-15T01:58:36.782Z,100.00
2023-03-15T02:01:05.456Z,100.00
2023-03-15T02:03:46.673Z,100.00
2023-03-15T02:06:19.302Z,100.00
2023-03-15T02:08:56.965Z,100.00
2023-03-15T02:11:27.328Z,100.00
2023-03-15T02:13:58.880Z,100.00
2023-03-15T02:16:27.546Z,100.00
2023-03-15T02:19:00.173Z,100.00
2023-03-15T02:21:43.384Z,100.00
2023-03-15T02:24:24.460Z,100.00
2023-03-15T02:26:55.531Z,100.00
2023-03-15T02:29:27.416Z,100.00
2023-03-15T02:31:56.972Z,100.00
2023-03-15T02:34:26.973Z,100.00
2023-03-15T02:36:55.697Z,100.00
2023-03-15T02:39:24.449Z,100.00
2023-03-15T02:41:55.626Z,100.00
2023-03-15T02:44:29.122Z,100.00
2023-03-15T02:47:02.462Z,100.00
2023-03-15T02:49:33.696Z,100.00
2023-03-15T02:52:01.622Z,100.00
2023-03-15T02:54:29.504Z,100.00
2023-03-15T02:56:57.434Z,100.00
2023-03-15T02:59:26.990Z,100.00
2023-03-15T03:01:54.893Z,100.00
2023-03-15T03:04:23.011Z,100.00
2023-03-15T03:06:50.959Z,100.00
2023-03-15T03:09:23.636Z,100.00
2023-03-15T03:11:51.782Z,100.00
2023-03-15T03:14:19.935Z,100.00
2023-03-15T03:16:49.301Z,100.00
2023-03-15T03:19:18.593Z,100.00
2023-03-15T03:21:46.556Z,100.00
2023-03-15T03:24:16.530Z,100.00
2023-03-15T03:26:46.088Z,100.00
2023-03-15T03:29:16.814Z,100.00
2023-03-15T03:31:47.328Z,100.00
2023-03-15T03:34:17.896Z,100.00
2023-03-15T03:36:45.710Z,100.00
2023-03-15T03:39:18.136Z,100.00
2023-03-15T03:41:46.690Z,100.00
2023-03-15T03:44:14.555Z,100.00
2023-03-15T03:46:43.818Z,100.00
2023-03-15T03:49:14.713Z,100.00
2023-03-15T03:51:43.935Z,100.00
2023-03-15T03:54:11.781Z,100.00
2023-03-15T03:56:40.273Z,100.00
2023-03-15T03:59:08.869Z,100.00
2023-03-15T04:01:57.010Z,100.00
2023-03-15T04:04:26.375Z,100.00
2023-03-15T04:06:56.498Z,100.00
2023-03-15T04:09:28.661Z,100.00
2023-03-15T04:11:56.626Z,100.00
2023-03-15T04:14:25.959Z,100.00
2023-03-15T04:16:54.697Z,100.00
2023-03-15T04:19:23.632Z,100.00
2023-03-15T04:21:52.715Z,100.00
2023-03-15T04:24:33.767Z,100.00
2023-03-15T04:27:10.004Z,100.00
2023-03-15T04:30:05.206Z,100.00
2023-03-15T04:33:03.602Z,100.00
2023-03-15T04:35:49.262Z,100.00
2023-03-15T04:38:35.544Z,100.00
2023-03-15T04:41:16.271Z,100.00
2023-03-15T04:43:58.308Z,100.00
2023-03-15T04:46:46.158Z,100.00
2023-03-15T04:49:32.852Z,100.00
2023-03-15T04:52:12.259Z,100.00
2023-03-15T04:54:52.608Z,100.00
2023-03-15T04:57:42.482Z,100.00
2023-03-15T05:00:28.759Z,100.00
2023-03-15T05:03:02.909Z,100.00
2023-03-15T05:05:51.057Z,100.00
2023-03-15T05:08:38.698Z,100.00
2023-03-15T05:11:20.274Z,100.00
2023-03-15T05:14:08.950Z,100.00
2023-03-15T05:16:55.905Z,100.00
2023-03-15T05:19:46.176Z,100.00
2023-03-15T05:22:44.264Z,100.00
2023-03-15T05:25:38.821Z,100.00
2023-03-15T05:28:26.527Z,100.00
2023-03-15T05:31:13.397Z,100.00
2023-03-15T05:34:13.669Z,100.00
2023-03-15T05:36:57.455Z,100.00
2023-03-15T05:39:38.669Z,100.00
2023-03-15T05:42:15.182Z,100.00
2023-03-15T05:44:58.529Z,100.00
2023-03-15T05:47:46.645Z,100.00
2023-03-15T05:50:33.532Z,100.00
2023-03-15T05:53:27.712Z,100.00
2023-03-15T05:56:07.189Z,100.00
2023-03-15T05:58:53.448Z,100.00
2023-03-15T06:01:43.643Z,100.00
2023-03-15T06:04:23.774Z,100.00
2023-03-15T06:06:52.089Z,100.00
2023-03-15T06:09:21.625Z,100.00
2023-03-15T06:11:49.690Z,100.00
2023-03-15T06:14:18.008Z,100.00
2023-03-15T06:16:50.092Z,100.00
2023-03-15T06:19:19.316Z,100.00
2023-03-15T06:21:49.072Z,100.00
2023-03-15T06:24:25.060Z,100.00
2023-03-15T06:26:56.238Z,100.00
2023-03-15T06:29:24.498Z,100.00
2023-03-15T06:31:54.930Z,100.00
2023-03-15T06:34:25.115Z,100.00
2023-03-15T06:36:54.673Z,100.00
2023-03-15T06:39:23.798Z,100.00
2023-03-15T06:41:53.687Z,100.00
2023-03-15T06:44:23.486Z,100.00
2023-03-15T06:46:57.261Z,100.00
2023-03-15T06:49:25.222Z,100.00
2023-03-15T06:51:54.599Z,100.00
2023-03-15T06:54:23.503Z,100.00
2023-03-15T06:56:51.589Z,100.00
2023-03-15T06:59:19.471Z,100.00
2023-03-15T07:01:47.451Z,100.00
2023-03-15T07:04:15.506Z,100.00
2023-03-15T07:06:43.444Z,100.00
2023-03-15T07:09:12.756Z,100.00
2023-03-15T07:11:40.680Z,100.00
2023-03-15T07:14:08.794Z,100.00
2023-03-15T07:16:36.856Z,100.00
2023-03-15T07:19:05.385Z,100.00
2023-03-15T07:21:33.484Z,100.00
2023-03-15T07:24:01.841Z,100.00
2023-03-15T07:26:31.221Z,100.00
2023-03-15T07:28:59.109Z,100.00
2023-03-15T07:31:27.091Z,100.00
2023-03-15T07:33:55.090Z,100.00
2023-03-15T07:36:23.253Z,100.00
2023-03-15T07:38:51.360Z,100.00
2023-03-15T07:41:19.309Z,100.00
2023-03-15T07:43:59.106Z,100.00
2023-03-15T07:46:27.131Z,100.00
2023-03-15T07:48:55.340Z,100.00
2023-03-15T07:51:23.316Z,100.00
2023-03-15T07:53:51.426Z,100.00
2023-03-15T07:56:19.945Z,100.00
2023-03-15T07:58:47.839Z,100.00
2023-03-15T08:01:17.075Z,100.00
2023-03-15T08:03:44.987Z,100.00
2023-03-15T08:06:12.905Z,100.00
2023-03-15T08:08:40.795Z,100.00
2023-03-15T08:11:08.690Z,100.00
2023-03-15T08:13:36.652Z,100.00
2023-03-15T08:16:04.609Z,100.00
2023-03-15T08:18:33.821Z,100.00
2023-03-15T08:21:01.823Z,100.00
2023-03-15T08:23:29.792Z,100.00
2023-03-15T08:25:58.202Z,100.00
2023-03-15T08:28:26.285Z,100.00
2023-03-15T08:30:54.297Z,100.00
2023-03-15T08:33:22.600Z,100.00
2023-03-15T08:35:54.846Z,100.00
2023-03-15T08:38:23.021Z,100.00
2023-03-15T08:40:51.153Z,100.00
2023-03-15T08:43:18.982Z,100.00
2023-03-15T08:46:00.108Z,100.00
2023-03-15T08:48:28.887Z,100.00
2023-03-15T08:50:58.605Z,100.00
2023-03-15T08:53:26.453Z,100.00
2023-03-15T08:55:54.578Z,100.00
2023-03-15T08:58:22.541Z,100.00
2023-03-15T09:00:51.441Z,100.00
2023-03-15T09:03:20.066Z,100.00
2023-03-15T09:05:48.003Z,100.00
2023-03-15T09:08:21.138Z,100.00
2023-03-15T09:10:49.105Z,100.00
2023-03-15T09:13:16.867Z,100.00
2023-03-15T09:15:44.752Z,99.64
2023-03-15T09:18:12.656Z,100.00
2023-03-15T09:20:41.293Z,100.00
2023-03-15T09:23:09.135Z,97.94
2023-03-15T09:25:38.820Z,98.56
2023-03-15T09:28:08.273Z,97.62
2023-03-15T09:30:36.983Z,96.43
2023-03-15T09:33:05.501Z,96.53
2023-03-15T09:35:33.458Z,96.06
2023-03-15T09:38:01.589Z,94.91
2023-03-15T09:40:33.119Z,94.36
2023-03-15T09:43:18.224Z,95.52
2023-03-15T09:45:59.952Z,93.87
2023-03-15T09:48:33.836Z,93.31
2023-03-15T09:51:06.027Z,90.82
2023-03-15T09:53:40.174Z,84.99
2023-03-15T09:56:22.350Z,80.77
2023-03-15T09:58:53.445Z,78.83
2023-03-15T10:01:27.618Z,75.85
2023-03-15T10:03:56.611Z,72.02
2023-03-15T10:06:27.754Z,68.36
2023-03-15T10:08:59.099Z,68.25
2023-03-15T10:11:35.179Z,64.72
2023-03-15T10:14:19.373Z,64.60
2023-03-15T10:16:48.558Z,63.36
2023-03-15T10:19:27.746Z,63.98
2023-03-15T10:22:01.090Z,61.49
2023-03-15T10:24:35.673Z,61.94
2023-03-15T10:27:15.329Z,60.97
2023-03-15T10:29:46.007Z,58.38
2023-03-15T10:32:18.913Z,53.70
2023-03-15T10:34:50.611Z,55.34
2023-03-15T10:37:19.189Z,55.02
2023-03-15T10:39:49.171Z,54.15
2023-03-15T10:42:27.965Z,54.30
2023-03-15T10:44:57.397Z,55.27
2023-03-15T10:47:26.805Z,57.11
2023-03-15T10:49:58.712Z,54.77
2023-03-15T10:52:45.767Z,54.91
2023-03-15T10:55:16.537Z,55.78
2023-03-15T10:57:54.035Z,54.21
2023-03-15T11:00:31.703Z,54.37
2023-03-15T11:03:04.916Z,53.05
2023-03-15T11:05:38.166Z,50.30
2023-03-15T11:08:14.322Z,50.50
2023-03-15T11:10:42.261Z,51.34
2023-03-15T11:13:11.890Z,51.03
2023-03-15T11:15:47.990Z,51.36
2023-03-15T11:18:18.847Z,51.03
2023-03-15T11:20:46.811Z,51.67
2023-03-15T11:23:18.091Z,53.54
2023-03-15T11:25:46.305Z,46.86
2023-03-15T11:28:19.705Z,44.82
2023-03-15T11:30:49.556Z,43.75
2023-03-15T11:33:33.897Z,43.87
2023-03-15T11:36:06.440Z,45.52
2023-03-15T11:38:38.391Z,49.49
2023-03-15T11:41:15.741Z,48.55
2023-03-15T11:43:54.438Z,48.94
2023-03-15T11:46:31.467Z,45.18
2023-03-15T11:49:05.296Z,44.47
2023-03-15T11:51:36.119Z,46.38
2023-03-15T11:54:10.710Z,46.96
2023-03-15T11:56:51.332Z,44.82
2023-03-15T11:59:21.325Z,45.72
2023-03-15T12:01:53.645Z,46.23
2023-03-15T12:04:47.403Z,44.71
2023-03-15T12:07:38.578Z,45.75
2023-03-15T12:10:34.890Z,46.37
2023-03-15T12:13:18.509Z,45.47
2023-03-15T12:15:48.708Z,43.07
2023-03-15T12:18:41.106Z,40.13
2023-03-15T12:21:13.656Z,43.25
2023-03-15T12:23:45.841Z,46.47
2023-03-15T12:26:39.150Z,43.84
2023-03-15T12:29:14.274Z,42.12
2023-03-15T12:31:52.888Z,43.20
2023-03-15T12:34:29.708Z,41.89
2023-03-15T12:37:02.062Z,43.04
2023-03-15T12:39:48.178Z,45.72
2023-03-15T12:43:10.483Z,40.63
2023-03-15T12:45:45.450Z,40.07
2023-03-15T12:48:27.308Z,41.17
2023-03-15T12:51:37.606Z,41.59
2023-03-15T12:54:05.865Z,40.36
2023-03-15T12:56:41.760Z,39.22
2023-03-15T12:59:35.237Z,39.81
2023-03-15T13:02:04.841Z,40.45
2023-03-15T13:04:32.945Z,40.45
2023-03-15T13:07:26.783Z,38.88
2023-03-15T13:10:29.240Z,40.12
2023-03-15T13:13:08.448Z,38.81
2023-03-15T13:15:43.007Z,37.97
2023-03-15T13:18:19.027Z,38.57
2023-03-15T13:20:56.686Z,39.16
2023-03-15T13:23:30.483Z,39.22
2023-03-15T13:26:15.411Z,40.47
2023-03-15T13:28:47.819Z,37.62
2023-03-15T13:31:22.563Z,38.58
2023-03-15T13:33:52.307Z,37.89
2023-03-15T13:36:23.573Z,37.98
2023-03-15T13:38:54.372Z,38.10
2023-03-15T13:41:24.791Z,37.58
2023-03-15T13:43:55.418Z,38.50
2023-03-15T13:46:25.651Z,39.31
2023-03-15T13:48:56.095Z,40.24
2023-03-15T13:51:25.930Z,40.73
2023-03-15T13:53:57.909Z,42.27
2023-03-15T13:56:37.426Z,40.23
2023-03-15T13:59:13.011Z,41.86
2023-03-15T14:01:43.547Z,38.90
2023-03-15T14:04:17.323Z,40.17
2023-03-15T14:06:46.740Z,40.71
2023-03-15T14:09:22.656Z,40.96
2023-03-15T14:12:02.842Z,39.75
2023-03-15T14:14:32.858Z,37.25
2023-03-15T14:17:05.929Z,38.29
2023-03-15T14:19:35.584Z,38.73
2023-03-15T14:22:05.310Z,41.28
2023-03-15T14:24:37.530Z,39.60
2023-03-15T14:27:09.262Z,38.75
2023-03-15T14:29:38.971Z,39.89
2023-03-15T14:32:09.295Z,38.96
2023-03-15T14:34:44.804Z,38.61
2023-03-15T14:37:28.954Z,40.47
2023-03-15T14:40:15.334Z,39.56
2023-03-15T14:42:43.534Z,40.95
2023-03-15T14:45:11.794Z,40.70
2023-03-15T14:47:55.388Z,41.60
2023-03-15T14:50:24.774Z,40.27
2023-03-15T14:52:54.119Z,40.89
2023-03-15T14:55:26.008Z,40.46
2023-03-15T14:57:53.962Z,40.91
2023-03-15T15:00:22.393Z,41.97
2023-03-15T15:02:53.059Z,41.57
2023-03-15T15:05:24.823Z,40.67
2023-03-15T15:07:54.837Z,39.95
2023-03-15T15:10:25.001Z,41.31
2023-03-15T15:13:04.859Z,40.51
2023-03-15T15:15:43.926Z,41.43
2023-03-15T15:18:19.772Z,39.57
2023-03-15T15:20:48.019Z,39.99
2023-03-15T15:23:20.668Z,40.40
2023-03-15T15:25:52.930Z,40.96
2023-03-15T15:28:33.215Z,40.40
2023-03-15T15:31:02.428Z,39.71
2023-03-15T15:33:30.363Z,41.15
2023-03-15T15:35:59.037Z,40.39
2023-03-15T15:38:34.962Z,41.81
2023-03-15T15:41:04.333Z,40.09
2023-03-15T15:43:33.656Z,40.03
2023-03-15T15:46:01.762Z,39.01
2023-03-15T15:48:29.942Z,40.84
2023-03-15T15:50:57.771Z,40.90
2023-03-15T15:53:26.403Z,42.52
2023-03-15T15:55:54.450Z,40.07
2023-03-15T15:58:23.796Z,38.71
2023-03-15T16:00:51.650Z,39.71
2023-03-15T16:03:19.685Z,40.14
2023-03-15T16:05:47.647Z,40.04
2023-03-15T16:08:21.832Z,40.50
2023-03-15T16:10:49.886Z,40.03
2023-03-15T16:13:18.279Z,39.77
2023-03-15T16:15:47.508Z,42.30
2023-03-15T16:18:15.537Z,41.95
2023-03-15T16:20:43.938Z,41.73
2023-03-15T16:23:20.461Z,40.85
2023-03-15T16:25:50.465Z,39.87
2023-03-15T16:28:18.325Z,41.13
2023-03-15T16:30:47.778Z,42.22
2023-03-15T16:33:17.220Z,43.09
2023-03-15T16:35:46.226Z,42.83
2023-03-15T16:38:16.934Z,41.01
2023-03-15T16:40:46.589Z,41.50
2023-03-15T16:43:14.645Z,40.90
2023-03-15T16:45:42.545Z,42.20
2023-03-15T16:48:12.753Z,42.06
2023-03-15T16:50:40.979Z,40.97
2023-03-15T16:53:11.785Z,43.35
2023-03-15T16:55:40.591Z,43.59
2023-03-15T16:58:16.818Z,44.85
2023-03-15T17:00:47.041Z,44.27
2023-03-15T17:03:18.086Z,42.92
2023-03-15T17:05:47.992Z,42.59
2023-03-15T17:08:19.580Z,46.23
2023-03-15T17:10:48.032Z,43.21
2023-03-15T17:13:18.220Z,44.20
2023-03-15T17:15:46.319Z,44.58
2023-03-15T17:18:19.131Z,47.19
2023-03-15T17:20:48.575Z,44.78
2023-03-15T17:23:16.960Z,46.87
2023-03-15T17:25:44.919Z,46.34
2023-03-15T17:28:12.879Z,48.41
2023-03-15T17:30:41.030Z,49.59
2023-03-15T17:33:09.120Z,52.32
2023-03-15T17:35:41.541Z,53.10
2023-03-15T17:38:17.052Z,53.38
2023-03-15T17:40:45.086Z,54.17
2023-03-15T17:43:14.524Z,54.51
2023-03-15T17:45:43.102Z,54.65
2023-03-15T17:48:10.980Z,55.05
2023-03-15T17:50:41.431Z,56.09
2023-03-15T17:53:16.014Z,56.64
2023-03-15T17:55:44.544Z,56.26
2023-03-15T17:58:13.981Z,57.44
2023-03-15T18:00:43.459Z,56.81
2023-03-15T18:03:14.313Z,57.82
2023-03-15T18:05:43.478Z,57.59
2023-03-15T18:08:12.599Z,57.83
2023-03-15T18:10:42.305Z,58.28
2023-03-15T18:13:13.564Z,60.02
2023-03-15T18:15:41.893Z,60.16
2023-03-15T18:18:09.971Z,61.34
2023-03-15T18:20:38.447Z,61.84
2023-03-15T18:23:08.477Z,62.38
2023-03-15T18:25:36.708Z,64.63
2023-03-15T18:28:04.971Z,62.63
2023-03-15T18:30:33.686Z,62.48
2023-03-15T18:33:01.681Z,63.60
2023-03-15T18:35:31.693Z,65.09
2023-03-15T18:37:59.731Z,65.73
2023-03-15T18:40:30.831Z,66.96
2023-03-15T18:43:00.285Z,67.82
2023-03-15T18:45:30.593Z,67.00
2023-03-15T18:47:59.821Z,66.31
2023-03-15T18:50:28.908Z,65.59
2023-03-15T18:52:57.203Z,64.68
2023-03-15T18:55:25.227Z,65.59
2023-03-15T18:57:55.833Z,66.19
2023-03-15T19:00:26.992Z,67.73
2023-03-15T19:02:56.603Z,67.84
2023-03-15T19:05:25.737Z,67.77
2023-03-15T19:07:53.666Z,67.04
2023-03-15T19:10:23.485Z,67.23
2023-03-15T19:12:52.295Z,67.55
2023-03-15T19:15:22.932Z,67.67
2023-03-15T19:17:54.374Z,68.75
2023-03-15T19:20:23.086Z,68.89
2023-03-15T19:22:52.150Z,70.06
2023-03-15T19:25:20.745Z,69.60
2023-03-15T19:27:48.899Z,70.47
2023-03-15T19:30:20.750Z,70.21
2023-03-15T19:32:51.082Z,70.51
2023-03-15T19:35:20.352Z,71.17
2023-03-15T19:37:49.003Z,71.42
2023-03-15T19:40:18.392Z,71.78
2023-03-15T19:42:47.122Z,71.62
2023-03-15T19:45:15.458Z,72.13
2023-03-15T19:47:43.456Z,71.70
2023-03-15T19:50:14.659Z,72.62
2023-03-15T19:52:46.817Z,71.98
2023-03-15T19:55:15.475Z,72.20
2023-03-15T19:57:43.337Z,72.10
2023-03-15T20:00:14.283Z,71.98
2023-03-15T20:02:42.152Z,72.01
2023-03-15T20:05:13.398Z,72.24
2023-03-15T20:07:42.445Z,72.63
2023-03-15T20:10:11.696Z,73.33
2023-03-15T20:12:42.158Z,73.26
2023-03-15T20:15:11.601Z,72.85
2023-03-15T20:17:40.565Z,73.35
2023-03-15T20:20:10.785Z,73.97
2023-03-15T20:22:41.638Z,74.56
2023-03-15T20:25:10.870Z,75.16
2023-03-15T20:27:39.042Z,75.65
2023-03-15T20:30:09.824Z,76.23
2023-03-15T20:32:37.759Z,76.86
2023-03-15T20:35:09.116Z,76.48
2023-03-15T20:37:40.673Z,77.28
2023-03-15T20:40:12.580Z,77.72
2023-03-15T20:42:41.201Z,78.07
2023-03-15T20:45:10.883Z,77.05
2023-03-15T20:47:39.111Z,77.98
2023-03-15T20:50:07.647Z,78.22
2023-03-15T20:52:35.639Z,78.40
2023-03-15T20:55:05.992Z,78.57
2023-03-15T20:57:36.509Z,78.99
2023-03-15T21:00:12.265Z,78.69
2023-03-15T21:02:41.310Z,79.29
2023-03-15T21:05:13.988Z,79.47
2023-03-15T21:07:42.428Z,80.15
2023-03-15T21:10:13.621Z,80.57
2023-03-15T21:12:43.874Z,80.01
2023-03-15T21:15:17.356Z,79.97
2023-03-15T21:17:45.745Z,80.21
2023-03-15T21:20:15.579Z,80.46
2023-03-15T21:22:43.793Z,80.36
2023-03-15T21:25:13.370Z,80.38
2023-03-15T21:27:42.670Z,80.82
2023-03-15T21:30:13.846Z,80.91
2023-03-15T21:32:42.873Z,81.73
2023-03-15T21:35:11.551Z,81.10
2023-03-15T21:37:40.101Z,81.20
2023-03-15T21:40:09.085Z,81.78
2023-03-15T21:42:37.489Z,82.82
2023-03-15T21:45:08.455Z,83.16
2023-03-15T21:47:37.050Z,83.06
2023-03-15T21:50:05.932Z,82.51
2023-03-15T21:52:33.867Z,83.34
2023-03-15T21:55:03.407Z,84.43
2023-03-15T21:57:33.644Z,84.33
2023-03-15T22:00:11.642Z,84.40
2023-03-15T22:02:43.483Z,84.17
2023-03-15T22:05:12.130Z,84.33
2023-03-15T22:07:41.002Z,84.42
2023-03-15T22:10:11.689Z,85.05
2023-03-15T22:12:39.917Z,84.89
2023-03-15T22:15:11.072Z,85.43
2023-03-15T22:17:39.482Z,85.80
2023-03-15T22:20:13.988Z,86.34
2023-03-15T22:22:42.007Z,86.00
2023-03-15T22:25:10.928Z,86.53
2023-03-15T22:27:38.779Z,86.31
2023-03-15T22:30:08.612Z,86.23
2023-03-15T22:32:38.026Z,86.65
2023-03-15T22:35:07.085Z,86.81
2023-03-15T22:37:35.472Z,86.08
2023-03-15T22:40:04.473Z,86.20
2023-03-15T22:42:32.479Z,86.59
2023-03-15T22:45:00.488Z,86.79
2023-03-15T22:47:28.658Z,86.23
2023-03-15T22:49:59.616Z,86.49
2023-03-15T22:52:27.636Z,86.46
2023-03-15T22:54:55.726Z,87.21
2023-03-15T22:57:23.851Z,87.06
2023-03-15T22:59:51.690Z,87.36
2023-03-15T23:02:19.510Z,87.19
2023-03-15T23:04:47.643Z,87.48
2023-03-15T23:07:16.984Z,87.19
2023-03-15T23:09:45.107Z,87.48
2023-03-15T23:12:15.357Z,87.00
2023-03-15T23:14:44.796Z,87.14
2023-03-15T23:17:14.603Z,87.49
2023-03-15T23:19:43.184Z,87.25
2023-03-15T23:22:11.941Z,87.77
2023-03-15T23:24:41.499Z,87.43
2023-03-15T23:27:09.637Z,88.10
2023-03-15T23:29:50.747Z,88.12
2023-03-15T23:32:21.116Z,88.21
2023-03-15T23:34:49.054Z,88.11
2023-03-15T23:37:17.083Z,88.35
2023-03-15T23:39:46.908Z,88.32
2023-03-15T23:42:15.047Z,87.33
2023-03-15T23:44:43.300Z,88.33
2023-03-15T23:47:12.313Z,88.28
2023-03-15T23:49:41.197Z,88.27
2023-03-15T23:52:09.722Z,87.87
2023-03-15T23:54:41.304Z,87.81
2023-03-15T23:57:16.369Z,86.98
2023-03-15T23:59:44.889Z,88.16
